Time;durP1;ratioP1;P1;durP2;ratioP2;P2;SDS_P1;SDS_P2;PMS_P1;PMS_P2;Temp;Humidity;BMP_temperature;BMP_pressure;BME280_temperature;BME280_humidity;BME280_pressure;Samples;Min_cycle;Max_cycle;Signal;HPM_P1;HPM_P2
2021/05/14 03:01:52;;;;;;;8.20;3.77;;;;;;;14.69;100.00;99864.80;1700701;78;63608;-75
2021/05/14 03:04:19;;;;;;;10.17;4.43;;;;;;;14.77;100.00;99856.65;1667315;84;21447;-75
2021/05/14 03:06:46;;;;;;;8.37;4.27;;;;;;;14.79;100.00;99862.46;1671439;84;21112;-78
2021/05/14 03:09:14;;;;;;;7.53;3.93;;;;;;;14.80;100.00;99854.08;1671599;84;21103;-76
2021/05/14 03:11:40;;;;;;;6.37;4.00;;;;;;;14.80;100.00;99852.25;1668526;85;21025;-69
2021/05/14 03:14:07;;;;;;;7.63;4.00;;;;;;;14.81;100.00;99842.06;1670246;85;21132;-69
2021/05/14 03:16:34;;;;;;;8.17;4.13;;;;;;;14.77;100.00;99840.91;1669422;84;21089;-80
2021/05/14 03:19:02;;;;;;;10.43;3.97;;;;;;;14.73;100.00;99838.41;1669470;85;21631;-77
2021/05/14 03:21:30;;;;;;;6.73;3.87;;;;;;;14.70;100.00;99840.18;1669370;85;21165;-77
2021/05/14 03:24:00;;;;;;;7.50;3.50;;;;;;;14.69;100.00;99845.11;1669864;85;21037;-79
2021/05/14 03:26:27;;;;;;;6.57;3.90;;;;;;;14.68;100.00;99859.27;1672418;84;21492;-78
2021/05/14 03:28:53;;;;;;;11.63;4.33;;;;;;;14.72;100.00;99855.69;1669849;85;21054;-76
2021/05/14 03:31:20;;;;;;;8.83;3.83;;;;;;;14.77;100.00;99859.27;1667300;84;21110;-74
2021/05/14 03:33:46;;;;;;;9.73;3.87;;;;;;;14.83;100.00;99854.95;1667266;85;21499;-76
2021/05/14 03:36:17;;;;;;;7.77;3.83;;;;;;;14.90;100.00;99841.77;1664611;85;21635;-71
2021/05/14 03:38:41;;;;;;;7.43;3.20;;;;;;;14.96;100.00;99842.17;1662605;85;21006;-76
2021/05/14 03:41:30;;;;;;;6.60;3.23;;;;;;;15.01;100.00;99841.02;1665794;84;21037;-76
2021/05/14 03:43:46;;;;;;;5.93;3.20;;;;;;;15.07;100.00;99844.05;1667021;85;21125;-77
2021/05/14 03:46:13;;;;;;;7.40;3.40;;;;;;;15.12;100.00;99824.50;1665739;84;21545;-75
2021/05/14 03:48:39;;;;;;;9.53;3.07;;;;;;;15.19;100.00;99812.09;1666584;84;21084;-77
2021/05/14 03:51:06;;;;;;;5.87;3.10;;;;;;;15.24;100.00;99810.89;1664983;84;21021;-75
2021/05/14 03:53:33;;;;;;;7.50;3.10;;;;;;;15.28;100.00;99813.36;1661649;85;21820;-68
2021/05/14 03:55:59;;;;;;;6.20;3.10;;;;;;;15.36;100.00;99807.50;1664190;85;21009;-79
2021/05/14 03:58:26;;;;;;;5.53;2.80;;;;;;;15.40;100.00;99817.84;1663455;85;21503;-76
2021/05/14 04:00:53;;;;;;;7.07;2.47;;;;;;;15.45;100.00;99810.08;1664780;83;21045;-79
2021/05/14 04:03:21;;;;;;;5.57;3.00;;;;;;;15.50;100.00;99808.39;1675817;83;21108;-71
2021/05/14 04:05:49;;;;;;;6.27;3.03;;;;;;;15.56;100.00;99807.98;1676050;83;21116;-75
2021/05/14 04:08:17;;;;;;;7.40;3.00;;;;;;;15.61;100.00;99814.69;1678202;83;20925;-76
2021/05/14 04:16:06;;;;;;;6.70;2.57;;;;;;;15.82;100.00;99847.52;1684049;83;20965;-75
2021/05/14 04:18:38;;;;;;;7.27;2.63;;;;;;;15.93;100.00;99863.02;1683888;83;21060;-80
2021/05/14 04:21:05;;;;;;;5.77;3.10;;;;;;;16.02;100.00;99857.21;1683547;83;21506;-75
2021/05/14 04:23:32;;;;;;;6.97;2.87;;;;;;;16.20;100.00;99837.06;1683358;83;21106;-74
2021/05/14 04:25:59;;;;;;;5.27;3.17;;;;;;;16.37;100.00;99847.70;1651282;84;21100;-68
2021/05/14 04:28:26;;;;;;;5.67;3.00;;;;;;;16.55;100.00;99827.80;1682758;83;20942;-77
2021/05/14 04:30:53;;;;;;;6.20;3.07;;;;;;;16.75;100.00;99838.78;1683882;83;21547;-72
2021/05/14 04:33:19;;;;;;;5.03;2.40;;;;;;;17.15;100.00;99825.28;1683113;83;21590;-73
2021/05/14 04:35:46;;;;;;;5.47;2.20;;;;;;;17.66;100.00;99833.53;1683678;83;21151;-75
2021/05/14 04:38:13;;;;;;;3.80;2.40;;;;;;;18.14;100.00;99818.95;1683408;83;21001;-71
2021/05/14 04:40:39;;;;;;;7.53;2.40;;;;;;;18.62;100.00;99820.09;1683078;83;21530;-77
2021/05/14 04:43:06;;;;;;;5.90;2.40;;;;;;;19.00;100.00;99816.30;1682982;83;21053;-68
2021/05/14 04:45:32;;;;;;;5.43;2.50;;;;;;;19.17;100.00;99805.12;1683011;83;21061;-76
2021/05/14 04:47:59;;;;;;;4.43;2.30;;;;;;;19.29;100.00;99797.03;1683430;83;21105;-76
2021/05/14 04:50:26;;;;;;;5.90;2.60;;;;;;;19.37;100.00;99803.96;1682560;83;21574;-77
2021/05/14 04:53:05;;;;;;;8.87;2.77;;;;;;;19.37;100.00;99824.31;1683411;83;21565;-78
2021/05/14 04:55:33;;;;;;;5.77;2.07;;;;;;;19.40;100.00;99827.78;1685099;83;22238;-77
2021/05/14 04:57:59;;;;;;;6.97;2.50;;;;;;;19.48;100.00;99833.92;1682619;83;20981;-76
2021/05/14 05:00:28;;;;;;;7.20;2.33;;;;;;;19.51;100.00;99828.14;1683290;84;21151;-77
2021/05/14 05:02:54;;;;;;;4.70;2.30;;;;;;;19.44;100.00;99814.33;1656725;83;21520;-77
2021/05/14 05:05:21;;;;;;;6.30;2.10;;;;;;;19.37;100.00;99829.07;1648438;86;21136;-74
2021/05/14 05:07:48;;;;;;;3.97;2.23;;;;;;;19.47;100.00;99840.77;1644914;85;21101;-76
2021/05/14 05:10:16;;;;;;;8.33;2.60;;;;;;;19.68;100.00;99843.36;1646756;86;20997;-69
2021/05/14 05:12:43;;;;;;;6.03;2.70;;;;;;;19.84;100.00;99842.94;1647127;86;21062;-78
2021/05/14 05:15:11;;;;;;;7.43;2.33;;;;;;;19.93;100.00;99836.67;1648323;85;21095;-77
2021/05/14 05:17:39;;;;;;;3.83;2.43;;;;;;;19.87;100.00;99829.21;1646628;86;21983;-77
2021/05/14 05:20:07;;;;;;;3.53;2.20;;;;;;;19.76;100.00;99821.47;1646839;86;20969;-76
2021/05/14 05:22:33;;;;;;;3.67;2.30;;;;;;;19.59;100.00;99824.23;1647003;85;21050;-69
2021/05/14 05:25:00;;;;;;;6.33;2.30;;;;;;;19.39;100.00;99816.38;1646111;85;21163;-70
2021/05/14 05:27:27;;;;;;;5.93;2.60;;;;;;;19.19;100.00;99829.43;1646932;86;21494;-79
2021/05/14 05:29:53;;;;;;;10.20;2.37;;;;;;;19.01;100.00;99830.56;1649112;86;20993;-78
2021/05/14 05:32:20;;;;;;;5.00;2.23;;;;;;;18.87;100.00;99822.78;1646194;85;21058;-78
2021/05/14 05:34:47;;;;;;;7.77;2.83;;;;;;;18.86;100.00;99820.64;1647046;85;21037;-77
2021/05/14 05:37:13;;;;;;;4.23;2.17;;;;;;;18.91;100.00;99826.52;1648763;85;22478;-71
2021/05/14 05:39:40;;;;;;;4.93;2.47;;;;;;;19.02;100.00;99836.14;1645035;85;21122;-78
2021/05/14 05:42:07;;;;;;;5.53;2.90;;;;;;;19.09;100.00;99838.56;1645633;86;21634;-76
2021/05/14 05:44:34;;;;;;;5.60;2.70;;;;;;;19.06;100.00;99857.05;1641858;85;21132;-75
2021/05/14 05:47:01;;;;;;;5.33;2.60;;;;;;;19.04;100.00;99860.98;1642153;85;21106;-77
2021/05/14 05:49:28;;;;;;;5.67;2.27;;;;;;;19.03;100.00;99865.47;1641329;86;21072;-78
2021/05/14 05:51:55;;;;;;;5.23;2.60;;;;;;;19.02;100.00;99865.20;1644476;86;21140;-78
2021/05/14 05:54:22;;;;;;;5.23;2.60;;;;;;;19.03;100.00;99852.27;1648459;85;21037;-76
2021/05/14 05:56:50;;;;;;;6.53;2.87;;;;;;;19.04;100.00;99865.73;1645308;86;21158;-77
2021/05/14 05:59:18;;;;;;;8.70;2.93;;;;;;;19.10;100.00;99877.97;1644202;86;21828;-70
2021/05/14 06:01:45;;;;;;;6.37;2.67;;;;;;;19.20;100.00;99862.72;1644742;85;21397;-78
2021/05/14 06:04:13;;;;;;;5.70;2.87;;;;;;;19.20;100.00;99864.84;1677868;83;21005;-76
2021/05/14 06:06:39;;;;;;;10.57;2.90;;;;;;;19.13;100.00;99866.91;1680238;83;21610;-77
2021/05/14 06:09:06;;;;;;;6.90;2.60;;;;;;;19.10;100.00;99874.53;1680935;83;21499;-80
2021/05/14 06:11:34;;;;;;;6.53;2.63;;;;;;;19.10;100.00;99863.44;1678117;83;21096;-80
2021/05/14 06:14:01;;;;;;;6.90;3.20;;;;;;;19.06;100.00;99882.15;1678581;83;21228;-78
2021/05/14 06:16:28;;;;;;;6.30;2.80;;;;;;;19.02;100.00;99882.38;1677037;83;21116;-78
2021/05/14 06:19:01;;;;;;;6.33;2.67;;;;;;;19.00;100.00;99883.66;1677946;83;21002;-79
2021/05/14 06:21:23;;;;;;;6.63;2.90;;;;;;;18.95;100.00;99885.72;1675074;83;21127;-73
2021/05/14 06:23:50;;;;;;;5.63;2.37;;;;;;;18.92;100.00;99895.45;1676290;83;21381;-79
2021/05/14 06:26:18;;;;;;;7.07;2.33;;;;;;;18.92;100.00;99888.33;1677602;83;20985;-79
2021/05/14 06:28:45;;;;;;;10.83;2.80;;;;;;;18.94;100.00;99886.75;1682857;83;20926;-77
2021/05/14 06:31:12;;;;;;;9.17;2.70;;;;;;;18.92;100.00;99879.08;1681235;83;21140;-74
2021/05/14 06:33:38;;;;;;;8.23;2.40;;;;;;;18.92;100.00;99873.80;1684453;83;21582;-77
2021/05/14 06:36:06;;;;;;;6.87;2.73;;;;;;;18.95;100.00;99865.91;1682136;83;21073;-75
2021/05/14 06:38:32;;;;;;;4.80;2.67;;;;;;;18.99;100.00;99863.58;1682392;83;21090;-70
2021/05/14 06:41:00;;;;;;;9.20;3.17;;;;;;;19.04;100.00;99867.58;1683056;83;21614;-78
2021/05/14 06:43:27;;;;;;;8.30;2.73;;;;;;;19.09;100.00;99856.56;1680485;83;20957;-77
2021/05/14 06:45:53;;;;;;;6.03;2.90;;;;;;;19.12;100.00;99849.44;1683929;83;21147;-75
2021/05/14 06:48:20;;;;;;;7.00;2.77;;;;;;;19.17;100.00;99835.50;1683155;83;21520;-75
2021/05/14 06:50:46;;;;;;;8.27;3.00;;;;;;;19.23;100.00;99834.48;1682221;83;20982;-70
2021/05/14 06:53:13;;;;;;;7.37;2.60;;;;;;;19.36;100.00;99816.91;1683334;83;21040;-71
2021/05/14 06:55:40;;;;;;;7.73;3.00;;;;;;;19.54;100.00;99817.03;1681133;83;21105;-74
2021/05/14 06:58:08;;;;;;;6.23;2.90;;;;;;;19.83;100.00;99807.50;1681616;83;21141;-77
2021/05/14 07:00:35;;;;;;;4.87;2.80;;;;;;;20.21;100.00;99789.72;1683411;83;21120;-75
2021/05/14 07:03:02;;;;;;;5.20;2.23;;;;;;;20.61;100.00;99787.27;1666218;83;22458;-78
2021/05/14 07:05:28;;;;;;;5.93;2.53;;;;;;;21.11;100.00;99767.74;1646693;86;21147;-70
2021/05/14 07:07:55;;;;;;;6.37;2.50;;;;;;;21.75;100.00;99767.73;1647364;86;21191;-74
2021/05/14 07:10:23;;;;;;;7.80;2.80;;;;;;;22.28;100.00;99770.78;1646517;86;21028;-77
2021/05/14 07:12:51;;;;;;;8.33;3.23;;;;;;;22.52;100.00;99758.44;1645868;85;20989;-71
2021/05/14 07:15:18;;;;;;;7.83;2.57;;;;;;;22.50;100.00;99763.24;1647553;85;22078;-69
2021/05/14 07:17:45;;;;;;;5.07;2.83;;;;;;;22.57;100.00;99772.21;1646843;86;21068;-77
2021/05/14 07:20:13;;;;;;;14.77;2.73;;;;;;;22.70;100.00;99785.45;1645865;86;20981;-78
2021/05/14 07:22:40;;;;;;;3.80;2.50;;;;;;;22.80;100.00;99795.45;1644804;86;21537;-75
2021/05/14 07:25:08;;;;;;;8.83;3.33;;;;;;;23.00;100.00;99801.23;1646776;86;21076;-78
2021/05/14 07:27:35;;;;;;;4.37;2.70;;;;;;;23.28;100.00;99799.69;1646243;86;21499;-76
2021/05/14 07:30:03;;;;;;;9.80;3.07;;;;;;;23.67;100.00;99786.86;1644772;86;21646;-78
2021/05/14 07:32:30;;;;;;;6.37;3.13;;;;;;;23.94;100.00;99797.50;1650137;85;21640;-77
2021/05/14 07:34:56;;;;;;;8.83;3.73;;;;;;;24.08;100.00;99808.28;1647406;86;20938;-77
2021/05/14 07:37:23;;;;;;;10.63;3.67;;;;;;;24.25;100.00;99804.63;1646202;86;21029;-76
2021/05/14 07:39:50;;;;;;;7.20;3.07;;;;;;;24.22;100.00;99801.20;1646993;85;21131;-79
2021/05/14 07:42:16;;;;;;;7.40;2.97;;;;;;;23.94;100.00;99800.17;1647742;85;21470;-75
2021/05/14 07:44:44;;;;;;;5.20;3.13;;;;;;;23.77;100.00;99803.28;1647063;86;20958;-77
2021/05/14 07:47:12;;;;;;;6.13;3.00;;;;;;;23.71;100.00;99799.86;1646666;86;21058;-73
2021/05/14 07:49:38;;;;;;;6.07;2.93;;;;;;;23.75;100.00;99785.45;1646712;86;20997;-71
2021/05/14 07:52:05;;;;;;;10.23;3.23;;;;;;;23.73;100.00;99778.31;1647193;86;22621;-75
2021/05/14 07:54:32;;;;;;;10.57;2.80;;;;;;;23.71;100.00;99773.79;1649631;85;21118;-76
2021/05/14 07:56:58;;;;;;;5.80;3.47;;;;;;;23.66;100.00;99782.63;1647557;85;21028;-77
2021/05/14 07:59:26;;;;;;;6.90;3.33;;;;;;;23.61;100.00;99781.32;1646171;84;21089;-70
2021/05/14 08:01:53;;;;;;;6.33;3.40;;;;;;;23.71;100.00;99772.45;1645330;85;20977;-75
2021/05/14 08:04:20;;;;;;;7.83;3.17;;;;;;;23.89;100.00;99759.76;1668014;83;21101;-77
2021/05/14 08:06:46;;;;;;;7.53;2.80;;;;;;;24.02;100.00;99752.98;1673637;83;21173;-77
2021/05/14 08:09:19;;;;;;;5.83;2.60;;;;;;;24.14;100.00;99756.56;1670837;83;21507;-76
2021/05/14 08:11:42;;;;;;;8.53;3.10;;;;;;;24.22;100.00;99762.59;1673995;83;20966;-69
2021/05/14 08:14:09;;;;;;;4.93;2.50;;;;;;;24.15;100.00;99766.13;1675418;83;22094;-78
2021/05/14 08:16:35;;;;;;;6.80;2.77;;;;;;;24.10;100.00;99790.16;1670576;83;21116;-75
2021/05/14 08:19:03;;;;;;;7.00;3.17;;;;;;;24.06;100.00;99775.30;1672918;84;21074;-74
2021/05/14 08:21:30;;;;;;;7.67;2.93;;;;;;;24.16;100.00;99778.36;1660838;83;20990;-77
2021/05/14 08:23:56;;;;;;;7.13;2.80;;;;;;;24.17;100.00;99791.41;1659312;83;21555;-74
2021/05/14 08:26:23;;;;;;;6.57;2.80;;;;;;;24.10;100.00;99792.28;1669471;83;21326;-76
2021/05/14 08:28:50;;;;;;;8.83;3.93;;;;;;;24.01;100.00;99790.77;1666546;83;21083;-76
2021/05/14 08:31:17;;;;;;;8.47;3.40;;;;;;;24.00;100.00;99749.25;1674535;83;21514;-76
2021/05/14 08:33:43;;;;;;;7.10;3.37;;;;;;;24.12;100.00;99756.05;1675358;83;21635;-77
2021/05/14 08:36:09;;;;;;;6.33;3.20;;;;;;;24.39;100.00;99741.59;1673446;83;21144;-72
2021/05/14 08:38:36;;;;;;;6.73;2.97;;;;;;;24.75;100.00;99739.78;1672435;83;21144;-80
2021/05/14 08:41:05;;;;;;;6.97;2.50;;;;;;;24.96;100.00;99746.91;1675497;83;21097;-76
2021/05/14 08:43:31;;;;;;;8.40;2.93;;;;;;;25.04;100.00;99762.27;1675038;83;21006;-76
2021/05/14 08:46:01;;;;;;;12.10;3.23;;;;;;;24.93;100.00;99748.84;1676861;83;21085;-77
2021/05/14 08:48:30;;;;;;;6.50;2.97;;;;;;;24.70;100.00;99715.33;1671860;83;21021;-79
2021/05/14 08:50:57;;;;;;;9.90;3.10;;;;;;;24.53;100.00;99689.73;1674856;83;21089;-78
2021/05/14 08:53:24;;;;;;;4.53;2.97;;;;;;;24.54;100.00;99674.53;1674051;83;22066;-74
2021/05/14 08:55:51;;;;;;;5.73;2.70;;;;;;;24.72;100.00;99659.06;1674784;83;21065;-70
2021/05/14 08:58:18;;;;;;;7.50;3.43;;;;;;;25.09;100.00;99640.05;1673525;83;21129;-75
2021/05/14 09:00:45;;;;;;;6.17;3.00;;;;;;;25.40;100.00;99641.63;1670828;83;21595;-78
2021/05/14 09:03:13;;;;;;;5.97;2.73;;;;;;;25.58;100.00;99662.64;1676343;83;21089;-79
2021/05/14 09:05:40;;;;;;;5.97;2.73;;;;;;;25.55;100.00;99660.02;1651433;86;21117;-78
2021/05/14 09:08:07;;;;;;;5.33;3.03;;;;;;;25.52;100.00;99670.48;1682214;83;21157;-74
2021/05/14 09:10:35;;;;;;;6.87;2.77;;;;;;;25.66;100.00;99685.97;1683046;83;21644;-71
2021/05/14 09:13:11;;;;;;;6.73;2.73;;;;;;;25.82;100.00;99691.81;1683157;83;21023;-76
2021/05/14 09:15:41;;;;;;;6.80;2.43;;;;;;;25.83;100.00;99711.53;1682829;83;21048;-77
2021/05/14 09:18:18;;;;;;;9.43;2.70;;;;;;;25.91;100.00;99723.39;1682297;83;21184;-77
2021/05/14 09:20:54;;;;;;;9.35;2.85;;;;;;;26.17;100.00;99728.45;1680679;83;22150;-77
2021/05/14 09:23:25;;;;;;;7.00;2.43;;;;;;;26.69;100.00;99742.87;1682337;83;21128;-74
2021/05/14 09:25:57;;;;;;;10.15;2.75;;;;;;;27.23;100.00;99758.45;1682146;83;21105;-78
2021/05/14 09:28:24;;;;;;;;;;;;;;;27.58;100.00;99760.77;1683828;83;21025;-78
2021/05/14 09:31:14;;;;;;;4.65;2.50;;;;;;;27.86;100.00;99776.10;1682511;83;21112;-77
2021/05/14 09:33:52;;;;;;;5.40;2.45;;;;;;;28.14;100.00;99793.28;1681603;83;20993;-77
2021/05/14 09:36:23;;;;;;;4.37;2.42;;;;;;;28.48;100.00;99798.51;1682293;83;21116;-76
2021/05/14 09:39:05;;;;;;;7.20;2.87;;;;;;;28.81;98.76;99803.66;1682930;83;21100;-75
2021/05/14 09:41:36;;;;;;;5.67;2.47;;;;;;;29.06;93.73;99799.42;1682375;83;21156;-77
2021/05/14 09:44:16;;;;;;;4.30;2.98;;;;;;;29.30;90.33;99806.96;1682359;83;21649;-78
2021/05/14 09:46:50;;;;;;;5.33;3.00;;;;;;;29.52;85.89;99795.78;1681441;83;21179;-78
2021/05/14 09:49:18;;;;;;;8.95;2.70;;;;;;;29.66;85.50;99791.56;1683093;83;21174;-68
2021/05/14 09:51:52;;;;;;;5.17;2.35;;;;;;;29.92;84.20;99807.58;1682028;83;21612;-77
2021/05/14 09:54:28;;;;;;;7.30;3.30;;;;;;;29.93;76.16;99725.84;1685175;83;21077;-77
2021/05/14 09:59:50;;;;;;;6.47;2.72;;;;;;;29.58;74.81;99764.41;1681595;83;21043;-77
2021/05/14 10:02:36;;;;;;;7.55;2.60;;;;;;;29.58;74.81;99764.41;1682337;83;21558;-77
2021/05/14 10:05:08;;;;;;;4.50;2.33;;;;;;;29.78;75.16;99807.25;1682331;83;21650;-76
2021/05/14 10:07:36;;;;;;;6.83;2.50;;;;;;;30.25;69.92;99790.28;1684128;83;21550;-77
2021/05/14 10:10:08;;;;;;;7.05;3.45;;;;;;;30.63;68.71;99780.75;1682173;83;21052;-76
2021/05/14 10:12:36;;;;;;;6.20;2.90;;;;;;;31.02;60.50;99784.08;1683238;83;21124;-69
2021/05/14 10:15:10;;;;;;;7.75;2.60;;;;;;;31.21;52.01;99777.63;1682675;83;21048;-78
2021/05/14 10:17:39;;;;;;;7.10;2.83;;;;;;;31.29;49.72;99773.27;1682640;83;21586;-72
2021/05/14 10:20:10;;;;;;;7.03;2.47;;;;;;;31.32;49.13;99778.59;1681749;83;21013;-78
2021/05/14 10:22:37;;;;;;;6.72;3.10;;;;;;;31.06;50.39;99782.30;1683010;83;21130;-70
2021/05/14 10:25:06;;;;;;;5.67;2.30;;;;;;;30.65;51.15;99794.67;1682830;83;21069;-76
2021/05/14 10:27:44;;;;;;;7.83;2.35;;;;;;;30.16;51.20;99786.31;1683381;83;21892;-70
2021/05/14 10:30:12;;;;;;;10.80;3.22;;;;;;;29.65;54.96;99759.10;1682968;83;21100;-76
2021/05/14 10:32:49;;;;;;;5.90;2.35;;;;;;;29.26;58.73;99728.17;1683767;83;21076;-72
2021/05/14 10:35:33;;;;;;;5.47;2.40;;;;;;;28.90;64.19;99697.67;1683195;83;21146;-70
2021/05/14 10:38:03;;;;;;;4.90;2.85;;;;;;;28.60;67.85;99684.17;1683545;83;21621;-76
2021/05/14 10:40:38;;;;;;;6.08;2.60;;;;;;;28.28;73.50;99662.62;1681070;83;21001;-77
2021/05/14 10:43:11;;;;;;;7.03;2.72;;;;;;;28.01;76.95;99683.80;1681444;83;21085;-77
2021/05/14 10:45:49;;;;;;;7.17;2.75;;;;;;;27.83;81.44;99733.86;1680336;83;21123;-79
2021/05/14 10:48:18;;;;;;;6.58;2.80;;;;;;;27.87;80.87;99727.34;1684252;83;21092;-80
2021/05/14 10:50:55;;;;;;;5.30;2.47;;;;;;;28.04;80.42;99703.83;1678351;83;20997;-80
2021/05/14 10:53:37;;;;;;;6.67;3.12;;;;;;;28.36;83.88;99732.08;1677709;83;21474;-79
2021/05/14 10:56:15;;;;;;;5.92;2.65;;;;;;;28.91;78.44;99744.09;1684927;83;21425;-79
2021/05/14 10:59:03;;;;;;;6.70;2.72;;;;;;;29.50;75.78;99761.73;1679397;83;21776;-79
2021/05/14 11:01:37;;;;;;;6.33;3.02;;;;;;;30.00;67.82;99731.49;1682321;83;22171;-79
2021/05/14 11:04:15;;;;;;;5.15;2.75;;;;;;;30.40;59.83;99731.89;1679431;83;21137;-76
2021/05/14 11:06:49;;;;;;;4.33;2.15;;;;;;;30.63;59.59;99750.37;1665228;84;21390;-79
2021/05/14 11:09:24;;;;;;;3.87;2.20;;;;;;;30.62;62.35;99752.28;1665259;84;21136;-79
2021/05/14 11:12:05;;;;;;;4.67;2.30;;;;;;;30.64;58.79;99739.27;1668639;84;21591;-68
2021/05/14 11:14:48;;;;;;;5.30;2.55;;;;;;;30.64;56.17;99736.59;1674413;84;21810;-69
2021/05/14 11:17:17;;;;;;;9.93;2.50;;;;;;;30.57;56.30;99730.16;1666986;84;21775;-74
2021/05/14 11:19:47;;;;;;;4.30;1.70;;;;;;;30.52;53.80;99724.44;1669352;84;21109;-75
2021/05/14 11:22:29;;;;;;;4.92;2.27;;;;;;;30.41;56.60;99728.64;1669132;84;21512;-71
2021/05/14 11:25:07;;;;;;;7.92;2.77;;;;;;;30.36;58.33;99738.25;1659470;84;21921;-76
2021/05/14 11:27:35;;;;;;;4.30;2.33;;;;;;;30.23;58.72;99712.66;1639649;85;21104;-70
2021/05/14 11:30:07;;;;;;;5.30;2.47;;;;;;;30.14;58.32;99687.69;1671647;84;21104;-74
2021/05/14 11:32:38;;;;;;;5.72;2.40;;;;;;;30.00;60.90;99669.15;1671663;84;21109;-73
2021/05/14 11:35:18;;;;;;;5.37;2.10;;;;;;;29.84;60.69;99684.25;1671711;84;21543;-77
2021/05/14 11:37:57;;;;;;;6.97;2.20;;;;;;;29.70;62.71;99687.20;1665328;84;21048;-72
2021/05/14 11:40:35;;;;;;;5.17;2.72;;;;;;;29.55;65.62;99687.16;1668915;84;21048;-74
2021/05/14 11:43:09;;;;;;;8.90;2.98;;;;;;;29.45;70.81;99702.84;1675360;84;20966;-74
2021/05/14 11:45:37;;;;;;;6.87;2.17;;;;;;;29.66;68.52;99707.73;1665456;84;21155;-76
2021/05/14 11:48:17;;;;;;;6.30;2.40;;;;;;;29.66;68.52;99707.73;1669130;84;21161;-75
2021/05/14 11:50:47;;;;;;;4.60;2.15;;;;;;;29.75;66.77;99707.15;1669069;84;21022;-70
2021/05/14 11:53:15;;;;;;;4.67;2.22;;;;;;;29.77;63.89;99696.84;1669267;84;21137;-70
2021/05/14 11:55:44;;;;;;;7.40;2.70;;;;;;;29.74;65.23;99686.77;1670260;84;22497;-77
2021/05/14 11:58:11;;;;;;;5.72;3.20;;;;;;;29.78;66.47;99697.66;1671768;83;21002;-75
2021/05/14 12:00:56;;;;;;;5.92;2.40;;;;;;;29.84;66.80;99690.19;1675188;84;21066;-74
2021/05/14 12:03:24;;;;;;;6.97;2.33;;;;;;;29.63;59.02;99673.48;1668067;84;21113;-77
2021/05/14 12:05:51;;;;;;;7.22;2.72;;;;;;;29.63;59.02;99673.48;1654914;84;21103;-78
2021/05/14 12:08:22;;;;;;;12.18;2.40;;;;;;;29.26;57.96;99694.62;1650310;85;21687;-70
2021/05/14 12:10:55;;;;;;;5.08;2.20;;;;;;;29.01;61.55;99707.55;1646416;85;20973;-70
2021/05/14 12:13:25;;;;;;;6.80;2.95;;;;;;;28.88;63.64;99705.27;1648330;85;21075;-77
2021/05/14 12:16:01;;;;;;;4.58;2.17;;;;;;;28.77;64.68;99689.27;1647563;85;21030;-75
2021/05/14 12:18:29;;;;;;;7.67;1.92;;;;;;;28.69;64.74;99677.45;1642617;86;21124;-71
2021/05/14 12:20:56;;;;;;;9.73;2.77;;;;;;;28.68;66.51;99667.84;1643813;86;22165;-76
2021/05/14 12:23:24;;;;;;;6.10;2.58;;;;;;;28.80;70.47;99664.50;1649779;85;21101;-75
2021/05/14 12:26:00;;;;;;;5.40;2.60;;;;;;;29.00;65.18;99661.70;1647235;85;21547;-75
2021/05/14 12:28:42;;;;;;;4.22;2.08;;;;;;;29.05;66.85;99658.84;1646291;85;21093;-75
2021/05/14 12:31:13;;;;;;;7.97;3.40;;;;;;;29.09;64.39;99661.93;1649106;85;21093;-77
2021/05/14 12:33:55;;;;;;;6.00;2.67;;;;;;;29.07;65.81;99666.81;1650717;85;21049;-76
2021/05/14 12:36:26;;;;;;;7.83;2.45;;;;;;;29.10;64.04;99645.27;1648120;85;21546;-75
2021/05/14 12:39:08;;;;;;;8.38;3.22;;;;;;;29.21;64.31;99654.55;1648035;85;21146;-76
2021/05/14 12:41:38;;;;;;;7.50;2.42;;;;;;;29.28;62.68;99651.33;1646631;86;21132;-75
2021/05/14 12:44:22;;;;;;;7.42;2.40;;;;;;;29.21;62.23;99646.48;1646516;86;22239;-77
2021/05/14 12:47:14;;;;;;;9.18;2.20;;;;;;;29.04;63.23;99646.54;1646671;86;21052;-74
2021/05/14 12:49:45;;;;;;;4.58;2.08;;;;;;;28.84;62.27;99645.31;1646775;85;20997;-78
2021/05/14 12:52:26;;;;;;;8.25;2.52;;;;;;;28.75;100.00;99643.19;1647904;86;22075;-76
2021/05/14 12:54:55;;;;;;;8.55;2.72;;;;;;;28.72;100.00;99639.27;1650337;85;20977;-75
2021/05/14 12:57:34;;;;;;;8.25;2.72;;;;;;;28.69;100.00;99636.44;1646188;84;21623;-74
2021/05/14 13:00:08;;;;;;;7.80;2.58;;;;;;;28.76;100.00;99640.77;1647159;86;21016;-77
2021/05/14 13:02:37;;;;;;;5.72;2.60;;;;;;;28.94;100.00;99636.12;1653311;85;21027;-69
2021/05/14 13:05:08;;;;;;;6.58;2.45;;;;;;;29.19;100.00;99637.95;1647786;85;21584;-73
2021/05/14 13:07:36;;;;;;;5.80;3.17;;;;;;;29.49;95.47;99632.05;1647139;85;21080;-78
2021/05/14 13:10:06;;;;;;;7.42;2.50;;;;;;;29.64;87.62;99626.70;1646995;86;21048;-75
2021/05/14 13:12:33;;;;;;;6.62;2.52;;;;;;;29.67;85.16;99628.75;1646070;85;20990;-70
2021/05/14 13:14:59;;;;;;;7.58;2.65;;;;;;;29.65;73.72;99628.27;1643828;86;20925;-70
2021/05/14 13:17:26;;;;;;;5.53;2.80;;;;;;;29.56;73.83;99632.89;1641203;86;21052;-78
2021/05/14 13:19:52;;;;;;;6.78;3.12;;;;;;;29.49;63.84;99629.37;1641053;85;21120;-77
2021/05/14 13:22:19;;;;;;;6.72;3.10;;;;;;;29.45;65.25;99633.03;1639053;85;22264;-75
2021/05/14 13:24:46;;;;;;;4.60;2.27;;;;;;;29.44;67.34;99633.59;1643708;86;21036;-76
2021/05/14 13:27:12;;;;;;;6.42;2.60;;;;;;;29.44;69.65;99636.27;1637931;84;21115;-71
2021/05/14 13:29:39;;;;;;;5.65;2.83;;;;;;;29.42;70.67;99639.05;1644807;85;21550;-77
2021/05/14 13:32:06;;;;;;;5.70;2.72;;;;;;;29.34;78.22;99628.02;1648744;85;21088;-79
2021/05/14 13:34:32;;;;;;;7.92;2.70;;;;;;;29.22;73.87;99636.53;1652722;85;21137;-78
2021/05/14 13:36:59;;;;;;;7.62;2.80;;;;;;;29.03;65.54;99634.23;1646927;85;21677;-79
2021/05/14 13:39:26;;;;;;;6.08;2.70;;;;;;;28.92;62.67;99634.33;1646999;86;21013;-68
2021/05/14 13:41:53;;;;;;;10.40;2.40;;;;;;;28.84;59.07;99632.69;1643697;85;21690;-80
2021/05/14 13:44:20;;;;;;;6.60;2.72;;;;;;;28.69;60.74;99631.86;1642094;85;21045;-79
2021/05/14 13:46:46;;;;;;;6.72;2.50;;;;;;;28.51;60.75;99631.09;1636745;85;21017;-80
2021/05/14 13:49:13;;;;;;;7.60;2.70;;;;;;;28.36;61.51;99625.64;1640668;85;21131;-78
2021/05/14 13:51:41;;;;;;;5.72;2.22;;;;;;;28.28;62.73;99633.69;1638913;85;20985;-79
2021/05/14 13:54:08;;;;;;;5.15;2.62;;;;;;;28.22;58.49;99628.24;1635932;85;21417;-78
2021/05/14 13:56:35;;;;;;;6.12;2.65;;;;;;;28.18;57.51;99625.96;1634277;86;21346;-78
2021/05/14 13:59:02;;;;;;;7.60;2.52;;;;;;;28.14;56.50;99628.48;1634852;86;21763;-78
2021/05/14 14:01:29;;;;;;;8.05;2.77;;;;;;;28.14;57.97;99632.50;1635602;86;21605;-68
2021/05/14 14:03:57;;;;;;;7.78;3.00;;;;;;;28.22;61.60;99634.94;1636287;86;21040;-79
2021/05/14 14:06:24;;;;;;;5.47;2.95;;;;;;;28.40;59.55;99631.19;1605665;86;22115;-78
2021/05/14 14:08:51;;;;;;;6.50;3.47;;;;;;;28.63;57.49;99633.13;1638194;85;21587;-77
2021/05/14 14:11:17;;;;;;;7.15;3.50;;;;;;;28.81;51.86;99634.66;1647768;85;21072;-77
2021/05/14 14:13:45;;;;;;;7.70;2.92;;;;;;;28.82;46.40;99632.20;1648072;85;20980;-76
2021/05/14 14:16:12;;;;;;;12.98;3.67;;;;;;;28.67;44.51;99632.72;1651714;85;20969;-78
2021/05/14 14:18:38;;;;;;;16.27;4.28;;;;;;;28.50;44.44;99636.78;1649028;85;22494;-80
2021/05/14 14:21:05;;;;;;;12.55;3.83;;;;;;;28.33;44.15;99638.33;1649276;85;21085;-79
2021/05/14 14:23:32;;;;;;;8.50;3.90;;;;;;;28.23;45.36;99644.58;1650744;85;21149;-75
2021/05/14 14:25:58;;;;;;;12.58;4.25;;;;;;;28.17;46.83;99637.80;1652958;85;21068;-79
2021/05/14 14:28:25;;;;;;;8.53;4.15;;;;;;;28.16;46.70;99634.33;1654139;85;21157;-70
2021/05/14 14:30:51;;;;;;;8.38;4.42;;;;;;;28.16;46.54;99632.98;1647191;85;21426;-76
2021/05/14 14:33:18;;;;;;;10.80;4.85;;;;;;;28.13;47.32;99627.70;1639084;85;21144;-79
2021/05/14 14:35:45;;;;;;;10.05;5.08;;;;;;;27.99;49.50;99628.95;1637785;85;21106;-70
2021/05/14 14:38:15;;;;;;;10.10;5.40;;;;;;;27.85;52.59;99623.75;1636724;85;21097;-76
2021/05/14 14:40:44;;;;;;;10.65;4.95;;;;;;;27.72;55.21;99635.34;1641944;85;21017;-80
2021/05/14 14:43:16;;;;;;;10.03;4.65;;;;;;;27.61;58.29;99634.30;1640522;85;21107;-79
2021/05/14 14:45:40;;;;;;;10.15;5.10;;;;;;;27.52;59.30;99634.05;1648723;85;21120;-72
2021/05/14 14:48:08;;;;;;;10.03;4.65;;;;;;;27.40;61.31;99635.43;1652985;85;21226;-79